Time;durP1;ratioP1;P1;durP2;ratioP2;P2;SDS_P1;SDS_P2;PMS_P1;PMS_P2;Temp;Humidity;BMP_temperature;BMP_pressure;BME280_temperature;BME280_humidity;BME280_pressure;Samples;Min_cycle;Max_cycle;Signal;HPM_P1;HPM_P2
2021/01/14 00:00:22;;;;;;;12.03;10.60;;;4.00;99.90;;;;;;4990143;28;21204;-26
2021/01/14 00:02:49;;;;;;;13.10;9.40;;;4.10;99.90;;;;;;4990114;28;20478;-26
2021/01/14 00:05:17;;;;;;;11.23;9.60;;;4.30;99.90;;;;;;4990333;28;20960;-26
2021/01/14 00:07:44;;;;;;;10.50;9.40;;;4.30;99.90;;;;;;4990052;28;20545;-27
2021/01/14 00:10:12;;;;;;;14.50;11.67;;;4.30;99.90;;;;;;4990536;28;20440;-26
2021/01/14 00:12:41;;;;;;;12.10;10.80;;;4.30;99.90;;;;;;4989735;28;20461;-26
2021/01/14 00:15:09;;;;;;;11.13;10.00;;;4.30;99.90;;;;;;4990448;28;20554;-26
2021/01/14 00:17:36;;;;;;;10.90;9.80;;;4.40;99.90;;;;;;4990700;28;20447;-26
2021/01/14 00:20:05;;;;;;;10.63;8.87;;;4.40;99.90;;;;;;4991039;28;20433;-26
2021/01/14 00:22:32;;;;;;;9.93;8.47;;;4.40;99.90;;;;;;4989859;28;20452;-26
2021/01/14 00:24:59;;;;;;;9.80;8.80;;;4.40;99.90;;;;;;4989351;28;20447;-26
2021/01/14 00:27:25;;;;;;;8.80;8.00;;;4.40;99.90;;;;;;4989509;28;20450;-26
2021/01/14 00:29:52;;;;;;;8.60;7.73;;;4.40;99.90;;;;;;4990032;28;20492;-26
2021/01/14 00:32:19;;;;;;;8.97;6.93;;;4.40;99.90;;;;;;4989538;28;20436;-26
2021/01/14 00:34:45;;;;;;;8.37;7.33;;;4.30;99.90;;;;;;4989728;28;20826;-26
2021/01/14 00:39:58;;;;;;;7.57;6.87;;;4.40;99.90;;;;;;4990445;28;20432;-26
2021/01/14 00:42:24;;;;;;;8.03;7.20;;;4.40;99.90;;;;;;4989655;28;20436;-26
2021/01/14 00:44:51;;;;;;;7.87;7.07;;;4.30;99.90;;;;;;4989221;28;20460;-26
2021/01/14 00:47:18;;;;;;;10.27;8.30;;;4.20;99.90;;;;;;4989046;28;20568;-26
2021/01/14 00:49:44;;;;;;;8.00;7.13;;;4.20;99.90;;;;;;4988223;28;20479;-26
2021/01/14 00:52:11;;;;;;;8.67;7.50;;;4.10;99.90;;;;;;4988586;28;20437;-26
2021/01/14 00:54:38;;;;;;;8.10;7.30;;;4.10;99.90;;;;;;4988459;28;20451;-26
2021/01/14 00:57:08;;;;;;;7.07;6.43;;;4.10;99.90;;;;;;4988810;28;20444;-26
2021/01/14 00:59:35;;;;;;;7.63;6.83;;;4.20;99.90;;;;;;4989097;28;20897;-26
2021/01/14 01:02:01;;;;;;;7.20;6.50;;;4.20;99.90;;;;;;4989382;28;20540;-26
2021/01/14 01:04:28;;;;;;;8.93;8.03;;;4.00;99.90;;;;;;4989392;28;20811;-26
2021/01/14 01:06:55;;;;;;;9.03;8.17;;;4.00;99.90;;;;;;4987512;28;20539;-26
2021/01/14 01:09:23;;;;;;;9.37;7.90;;;4.10;99.90;;;;;;4988009;28;20472;-27
2021/01/14 01:11:50;;;;;;;10.47;7.80;;;4.10;99.90;;;;;;4988284;28;20452;-26
2021/01/14 01:14:18;;;;;;;9.33;8.00;;;4.00;99.90;;;;;;4988301;28;20484;-26
2021/01/14 01:16:44;;;;;;;8.37;7.50;;;4.00;99.90;;;;;;4987948;28;20471;-26
2021/01/14 01:19:11;;;;;;;8.87;7.13;;;4.00;99.90;;;;;;4988150;28;20478;-26
2021/01/14 01:21:42;;;;;;;8.97;8.07;;;3.80;99.90;;;;;;4988489;28;20455;-24
2021/01/14 01:24:10;;;;;;;8.13;7.30;;;3.80;99.90;;;;;;4987703;28;20446;-26
2021/01/14 01:26:36;;;;;;;8.60;7.20;;;3.80;99.90;;;;;;4987536;28;20447;-26
2021/01/14 01:29:03;;;;;;;7.10;6.37;;;3.90;99.90;;;;;;4987910;28;20488;-26
2021/01/14 01:31:31;;;;;;;8.57;7.77;;;3.90;99.90;;;;;;4989226;28;20441;-26
2021/01/14 01:33:57;;;;;;;7.60;6.90;;;3.90;99.90;;;;;;4988416;28;20575;-26
2021/01/14 01:36:24;;;;;;;8.23;7.43;;;3.90;99.90;;;;;;4988481;28;20440;-26
2021/01/14 01:38:51;;;;;;;7.10;6.40;;;4.00;99.90;;;;;;4989056;28;20962;-26
2021/01/14 01:41:17;;;;;;;9.00;7.10;;;4.00;99.90;;;;;;4989289;28;21180;-26
2021/01/14 01:43:44;;;;;;;9.47;7.83;;;4.00;99.90;;;;;;4987905;28;20866;-26
2021/01/14 01:46:15;;;;;;;8.77;7.57;;;4.00;99.90;;;;;;4987732;28;20498;-26
2021/01/14 01:48:43;;;;;;;7.80;7.10;;;3.90;99.90;;;;;;4976121;28;20483;-27
2021/01/14 01:51:09;;;;;;;9.63;7.87;;;3.90;99.90;;;;;;4992685;28;20540;-26
2021/01/14 01:53:36;;;;;;;8.70;7.77;;;4.00;99.90;;;;;;4992642;28;20456;-26
2021/01/14 01:56:03;;;;;;;8.00;7.20;;;4.00;99.90;;;;;;4993168;28;20781;-26
2021/01/14 01:58:33;;;;;;;9.17;8.20;;;4.10;99.90;;;;;;4992758;28;20502;-26
2021/01/14 02:00:59;;;;;;;9.60;7.70;;;4.20;99.90;;;;;;4993729;28;20563;-26
2021/01/14 02:03:31;;;;;;;8.03;7.27;;;4.20;99.90;;;;;;4975644;28;20471;-26
2021/01/14 02:05:58;;;;;;;8.50;7.53;;;4.30;99.90;;;;;;4993125;28;20523;-27
2021/01/14 02:08:33;;;;;;;8.63;7.40;;;4.30;99.90;;;;;;4993000;28;20479;-26
2021/01/14 02:11:05;;;;;;;10.07;8.10;;;4.30;99.90;;;;;;4993059;28;20888;-26
2021/01/14 02:13:41;;;;;;;9.53;7.63;;;4.20;99.90;;;;;;4992987;28;20448;-26
2021/01/14 02:16:10;;;;;;;8.80;7.40;;;4.10;99.90;;;;;;4992840;28;20451;-26
2021/01/14 02:18:37;;;;;;;10.00;7.00;;;4.00;99.90;;;;;;4993465;28;20440;-26
2021/01/14 02:21:08;;;;;;;8.53;7.60;;;4.00;99.90;;;;;;4993130;28;20444;-26
2021/01/14 02:23:39;;;;;;;7.40;6.70;;;3.90;99.90;;;;;;4992536;28;20448;-27
2021/01/14 02:26:16;;;;;;;10.90;8.30;;;4.00;99.90;;;;;;4992333;28;20441;-26
2021/01/14 02:28:44;;;;;;;8.27;7.47;;;4.10;99.90;;;;;;4992070;28;20479;-26
2021/01/14 02:31:12;;;;;;;8.30;7.50;;;4.20;99.90;;;;;;4992513;28;20440;-24
2021/01/14 02:33:39;;;;;;;9.20;7.13;;;4.20;99.90;;;;;;4994018;28;20455;-26
2021/01/14 02:36:06;;;;;;;9.10;6.77;;;4.20;99.90;;;;;;4995873;28;20464;-24
2021/01/14 02:38:34;;;;;;;7.57;6.87;;;4.20;99.90;;;;;;4993889;28;20444;-26
2021/01/14 02:41:00;;;;;;;7.97;7.17;;;4.20;99.90;;;;;;4991959;28;20773;-26
2021/01/14 02:43:28;;;;;;;8.40;6.57;;;4.20;99.90;;;;;;4992388;28;20741;-26
2021/01/14 02:45:55;;;;;;;9.77;6.93;;;4.20;99.90;;;;;;4991286;28;20436;-24
2021/01/14 02:48:28;;;;;;;7.10;6.50;;;4.20;99.90;;;;;;4991812;28;20965;-24
2021/01/14 02:51:00;;;;;;;8.70;6.80;;;4.20;99.90;;;;;;4991302;28;20452;-24
2021/01/14 02:53:29;;;;;;;9.33;7.27;;;4.20;99.90;;;;;;4992246;28;20443;-24
2021/01/14 02:55:56;;;;;;;7.03;6.37;;;4.20;99.90;;;;;;4991716;28;20527;-26
2021/01/14 02:58:24;;;;;;;9.17;6.40;;;4.20;99.90;;;;;;4990925;28;20437;-26
2021/01/14 03:00:52;;;;;;;7.50;6.20;;;4.20;99.90;;;;;;4990915;28;20432;-26
2021/01/14 03:03:18;;;;;;;7.33;6.63;;;4.20;99.90;;;;;;4990968;28;20502;-26
2021/01/14 03:05:45;;;;;;;8.13;6.70;;;4.20;99.90;;;;;;4991752;28;20451;-26
2021/01/14 03:08:12;;;;;;;9.07;6.77;;;4.10;99.90;;;;;;4990999;28;20471;-26
2021/01/14 03:10:38;;;;;;;7.73;6.90;;;4.00;99.90;;;;;;4974395;28;20503;-26
2021/01/14 03:13:05;;;;;;;7.07;6.37;;;3.90;99.90;;;;;;4991973;28;20456;-26
2021/01/14 03:15:31;;;;;;;8.00;6.33;;;4.00;99.90;;;;;;4992096;28;20546;-26
2021/01/14 03:17:59;;;;;;;6.50;5.80;;;4.00;99.90;;;;;;4991369;28;20456;-27
2021/01/14 03:20:25;;;;;;;10.00;6.30;;;4.10;99.90;;;;;;4974583;28;20479;-26
2021/01/14 03:22:52;;;;;;;7.60;6.00;;;4.10;99.90;;;;;;4992901;28;20519;-26
2021/01/14 03:25:19;;;;;;;7.63;6.90;;;4.10;99.90;;;;;;4992156;28;20440;-26
2021/01/14 03:27:46;;;;;;;8.23;6.20;;;4.10;99.90;;;;;;4991751;28;20451;-26
2021/01/14 03:30:14;;;;;;;7.13;6.20;;;4.00;99.90;;;;;;4992406;28;20600;-26
2021/01/14 03:32:41;;;;;;;8.07;6.60;;;3.90;99.90;;;;;;4991816;28;20543;-26
2021/01/14 03:35:10;;;;;;;10.63;7.03;;;3.90;99.90;;;;;;4992264;28;20448;-26
2021/01/14 03:37:40;;;;;;;7.13;6.43;;;3.80;99.90;;;;;;4991163;28;20440;-26
2021/01/14 03:40:09;;;;;;;7.23;6.47;;;3.70;99.90;;;;;;4974210;28;20433;-26
2021/01/14 03:42:37;;;;;;;7.20;6.13;;;3.70;99.90;;;;;;4991939;28;20445;-26
2021/01/14 03:45:04;;;;;;;7.40;6.53;;;3.70;99.90;;;;;;4992480;28;20481;-26
2021/01/14 03:47:31;;;;;;;8.10;5.93;;;3.70;99.90;;;;;;4991435;28;20449;-26
2021/01/14 03:49:58;;;;;;;11.63;6.70;;;3.70;99.90;;;;;;4991002;28;20542;-26
2021/01/14 03:52:25;;;;;;;9.47;7.00;;;3.70;99.90;;;;;;4990612;28;20437;-27
2021/01/14 03:54:52;;;;;;;9.73;7.07;;;3.80;99.90;;;;;;4989719;28;20444;-27
2021/01/14 03:57:19;;;;;;;7.93;7.13;;;3.70;99.90;;;;;;4989530;28;20495;-26
2021/01/14 03:59:45;;;;;;;7.97;6.70;;;3.80;99.90;;;;;;4989967;28;20465;-26
2021/01/14 04:02:12;;;;;;;10.23;7.00;;;3.70;99.90;;;;;;4990018;28;20858;-26
2021/01/14 04:04:41;;;;;;;8.00;6.60;;;3.80;99.90;;;;;;4988775;28;20512;-26
2021/01/14 04:07:08;;;;;;;10.80;6.40;;;3.80;99.90;;;;;;4989536;28;20876;-26
2021/01/14 04:09:36;;;;;;;8.30;6.33;;;3.80;99.90;;;;;;4987899;28;20491;-26
2021/01/14 04:12:03;;;;;;;8.17;6.70;;;3.70;99.90;;;;;;4989063;28;20439;-26
2021/01/14 04:14:30;;;;;;;6.33;5.73;;;3.60;99.90;;;;;;4990048;28;20488;-26
2021/01/14 04:16:57;;;;;;;9.37;6.97;;;3.60;99.90;;;;;;4989155;28;20432;-26
2021/01/14 04:19:23;;;;;;;11.73;6.40;;;3.60;99.90;;;;;;4988282;28;20447;-26
2021/01/14 04:21:50;;;;;;;8.13;6.60;;;3.60;99.90;;;;;;4988661;28;20483;-26
2021/01/14 04:24:17;;;;;;;9.57;7.87;;;3.60;99.90;;;;;;4989811;28;21120;-26
2021/01/14 04:26:44;;;;;;;7.73;6.93;;;3.60;99.90;;;;;;4988472;28;20443;-27
2021/01/14 04:29:11;;;;;;;8.37;6.83;;;3.60;99.90;;;;;;4989073;28;21247;-26
2021/01/14 04:31:37;;;;;;;11.00;8.60;;;3.50;99.90;;;;;;4991048;28;20914;-26
2021/01/14 04:34:04;;;;;;;11.73;7.43;;;3.50;99.90;;;;;;4990346;28;21226;-26
2021/01/14 04:36:31;;;;;;;8.20;7.37;;;3.60;99.90;;;;;;4988922;28;20451;-26
2021/01/14 04:38:58;;;;;;;9.67;8.00;;;3.60;99.90;;;;;;4988534;28;20499;-26
2021/01/14 04:41:31;;;;;;;9.93;8.50;;;3.70;99.90;;;;;;4988851;28;20987;-26
2021/01/14 04:43:59;;;;;;;10.73;7.13;;;3.70;99.90;;;;;;4988763;28;20471;-26
2021/01/14 04:46:31;;;;;;;9.03;8.07;;;3.70;99.90;;;;;;4988108;28;20444;-26
2021/01/14 04:48:59;;;;;;;14.50;8.90;;;3.80;99.90;;;;;;4987447;28;21164;-26
2021/01/14 04:51:29;;;;;;;12.47;7.57;;;3.80;99.90;;;;;;4987566;28;20444;-26
2021/01/14 04:54:01;;;;;;;10.63;8.57;;;3.70;99.90;;;;;;4986863;28;20499;-26
2021/01/14 04:56:33;;;;;;;9.00;8.10;;;3.50;99.90;;;;;;4987116;28;20439;-26
2021/01/14 04:59:03;;;;;;;10.93;8.73;;;3.50;99.90;;;;;;4986771;28;20519;-26
2021/01/14 05:01:34;;;;;;;12.57;10.20;;;3.60;99.90;;;;;;4987336;28;20531;-26
2021/01/14 05:04:05;;;;;;;9.33;8.47;;;3.50;99.90;;;;;;4986948;28;20468;-26
2021/01/14 05:06:38;;;;;;;11.97;9.77;;;3.60;99.90;;;;;;4985700;28;20543;-26
2021/01/14 05:09:07;;;;;;;11.10;9.13;;;3.60;99.90;;;;;;4985334;28;20879;-26
2021/01/14 05:11:42;;;;;;;10.60;8.50;;;3.50;99.90;;;;;;4969161;28;21098;-26
2021/01/14 05:14:09;;;;;;;11.57;9.40;;;3.50;99.90;;;;;;4987371;28;20482;-25
2021/01/14 05:16:36;;;;;;;10.53;8.47;;;3.50;99.90;;;;;;4986641;28;20444;-25
2021/01/14 05:19:03;;;;;;;14.60;9.53;;;3.50;99.90;;;;;;4985910;28;20455;-25
2021/01/14 05:21:33;;;;;;;11.70;9.20;;;3.40;99.90;;;;;;4986580;28;20984;-25
2021/01/14 05:24:12;;;;;;;8.90;8.00;;;3.40;99.90;;;;;;4968113;28;20449;-26
2021/01/14 05:26:38;;;;;;;12.13;9.40;;;3.50;99.90;;;;;;4966761;28;20448;-25
2021/01/14 05:29:16;;;;;;;9.00;8.10;;;3.50;99.90;;;;;;4985412;28;20610;-26
2021/01/14 05:31:43;;;;;;;14.20;9.10;;;3.50;99.90;;;;;;4985116;28;20978;-26
2021/01/14 05:34:10;;;;;;;10.27;9.17;;;3.50;99.90;;;;;;4984610;28;20475;-25
2021/01/14 05:36:53;;;;;;;11.13;9.30;;;3.50;99.90;;;;;;4984125;28;20436;-25
2021/01/14 05:39:20;;;;;;;11.37;9.60;;;3.50;99.90;;;;;;4967898;28;20552;-25
2021/01/14 05:41:48;;;;;;;9.27;7.83;;;3.40;99.90;;;;;;4983617;28;20448;-25
2021/01/14 05:44:17;;;;;;;12.60;9.40;;;3.50;99.90;;;;;;4982770;28;20464;-26
2021/01/14 05:46:44;;;;;;;10.23;9.23;;;3.40;99.90;;;;;;4982933;28;20449;-25
2021/01/14 05:49:12;;;;;;;10.97;9.37;;;3.40;99.90;;;;;;4982937;28;20774;-25
2021/01/14 05:51:39;;;;;;;16.77;10.00;;;3.50;99.90;;;;;;4983275;28;20440;-25
2021/01/14 05:54:10;;;;;;;10.67;9.57;;;3.50;99.90;;;;;;4983225;28;20506;-25
2021/01/14 05:56:41;;;;;;;10.70;9.00;;;3.50;99.90;;;;;;4982912;28;20444;-25
2021/01/14 05:59:09;;;;;;;12.50;9.87;;;3.60;99.90;;;;;;4979486;28;20463;-25
2021/01/14 06:01:37;;;;;;;10.53;9.43;;;3.60;99.90;;;;;;4980855;28;20563;-27
2021/01/14 06:04:18;;;;;;;12.43;9.73;;;3.50;99.90;;;;;;4980835;28;20440;-25
2021/01/14 06:06:46;;;;;;;17.27;13.40;;;3.50;99.90;;;;;;4979331;28;20887;-25
2021/01/14 06:09:15;;;;;;;15.70;11.07;;;3.50;99.90;;;;;;4981080;28;21308;-26
2021/01/14 06:11:42;;;;;;;37.30;21.63;;;3.50;99.90;;;;;;4982769;28;21162;-25
2021/01/14 06:14:27;;;;;;;16.13;10.27;;;3.50;99.90;;;;;;4980321;28;20495;-25
2021/01/14 06:16:57;;;;;;;14.03;11.27;;;3.40;99.90;;;;;;4971606;28;20466;-25
2021/01/14 06:19:25;;;;;;;10.43;8.90;;;3.30;99.90;;;;;;4958544;28;20458;-25
2021/01/14 06:21:55;;;;;;;13.93;11.20;;;3.10;99.90;;;;;;4956636;28;20532;-25
2021/01/14 06:24:27;;;;;;;11.10;9.40;;;3.10;99.90;;;;;;4971142;28;20452;-26
2021/01/14 06:26:55;;;;;;;13.00;10.87;;;3.10;99.90;;;;;;4956004;28;20607;-25
2021/01/14 06:29:25;;;;;;;11.87;10.63;;;3.10;99.90;;;;;;4957630;28;20727;-25
2021/01/14 06:31:51;;;;;;;15.90;11.37;;;3.10;99.90;;;;;;4962551;28;20711;-25
2021/01/14 06:34:21;;;;;;;14.67;9.07;;;3.10;99.90;;;;;;4977693;28;20471;-25
2021/01/14 06:36:49;;;;;;;17.50;10.73;;;3.00;99.90;;;;;;4980400;28;20450;-25
2021/01/14 06:39:18;;;;;;;11.53;10.33;;;3.00;99.90;;;;;;4979538;28;20745;-25
2021/01/14 06:41:47;;;;;;;17.80;11.77;;;3.10;99.90;;;;;;4971401;28;20448;-26
2021/01/14 06:44:15;;;;;;;16.63;11.00;;;3.10;99.90;;;;;;4977188;28;20468;-26
2021/01/14 06:46:42;;;;;;;12.90;11.00;;;3.20;99.90;;;;;;4978319;28;20443;-26
2021/01/14 06:49:13;;;;;;;13.23;10.93;;;3.10;99.90;;;;;;4980740;28;20471;-25
2021/01/14 06:51:57;;;;;;;14.57;10.93;;;3.00;99.90;;;;;;4980946;28;20502;-25
2021/01/14 06:54:26;;;;;;;11.67;10.47;;;2.90;99.90;;;;;;4980525;28;20822;-26
2021/01/14 06:56:58;;;;;;;14.40;9.83;;;3.00;99.90;;;;;;4979150;28;20443;-26
2021/01/14 06:59:26;;;;;;;16.13;10.27;;;3.10;99.90;;;;;;4974249;28;20671;-25
2021/01/14 07:02:18;;;;;;;12.07;9.47;;;3.10;99.90;;;;;;4976541;28;20452;-25
2021/01/14 07:04:53;;;;;;;13.67;9.90;;;3.20;99.90;;;;;;4969110;28;20459;-26
2021/01/14 07:07:44;;;;;;;14.10;11.27;;;3.30;99.90;;;;;;4966807;28;20554;-25
2021/01/14 07:10:12;;;;;;;11.40;9.93;;;3.30;99.90;;;;;;4964215;28;20483;-26
2021/01/14 07:12:41;;;;;;;10.03;8.90;;;3.40;99.90;;;;;;4965157;28;20963;-26
2021/01/14 07:15:09;;;;;;;18.47;10.57;;;3.40;99.90;;;;;;4964552;28;20476;-26
2021/01/14 07:17:39;;;;;;;9.43;8.53;;;3.30;99.90;;;;;;4966316;28;20893;-26
2021/01/14 07:20:08;;;;;;;12.67;9.80;;;3.30;99.90;;;;;;4963182;28;20441;-25
2021/01/14 07:22:44;;;;;;;12.00;9.90;;;3.20;99.90;;;;;;4965821;28;20459;-26
2021/01/14 07:25:14;;;;;;;15.90;10.10;;;3.10;99.90;;;;;;4962093;28;20448;-26
2021/01/14 07:27:43;;;;;;;16.83;12.00;;;3.00;99.90;;;;;;4961541;28;21241;-26
2021/01/14 07:30:11;;;;;;;12.00;9.80;;;3.00;99.90;;;;;;4966518;28;20511;-26
2021/01/14 07:33:05;;;;;;;10.80;9.67;;;3.00;99.90;;;;;;4965276;28;20444;-25
2021/01/14 07:35:42;;;;;;;15.67;11.10;;;3.10;99.90;;;;;;4960138;28;20468;-26
2021/01/14 07:38:12;;;;;;;12.73;10.90;;;3.00;99.90;;;;;;4968147;28;20482;-26
2021/01/14 07:40:41;;;;;;;11.30;9.90;;;3.00;99.90;;;;;;4964533;28;20488;-26
2021/01/14 07:43:09;;;;;;;11.60;10.40;;;3.00;99.90;;;;;;4963158;28;20452;-26
2021/01/14 07:45:41;;;;;;;14.87;12.30;;;3.00;99.90;;;;;;4968495;28;20593;-25
2021/01/14 07:48:20;;;;;;;11.70;10.07;;;3.00;99.90;;;;;;4961237;28;20921;-25
2021/01/14 07:50:56;;;;;;;16.20;11.67;;;3.00;99.90;;;;;;4963247;28;20452;-25
2021/01/14 07:53:24;;;;;;;11.20;9.80;;;3.10;99.90;;;;;;4961331;28;20600;-25
2021/01/14 07:55:52;;;;;;;12.27;10.60;;;3.00;99.90;;;;;;4966195;28;20438;-25
2021/01/14 07:58:25;;;;;;;13.13;10.90;;;2.90;99.90;;;;;;4950784;28;20470;-25
2021/01/14 08:01:04;;;;;;;15.00;10.60;;;2.90;99.90;;;;;;4964607;28;20460;-25
2021/01/14 08:03:34;;;;;;;16.90;9.97;;;2.90;99.90;;;;;;4968502;28;21912;-25
2021/01/14 08:06:19;;;;;;;15.50;10.17;;;2.90;99.90;;;;;;4967328;28;20452;-25
2021/01/14 08:08:58;;;;;;;14.03;11.70;;;3.00;99.90;;;;;;4968555;28;21168;-25
2021/01/14 08:11:28;;;;;;;17.40;11.13;;;3.10;99.90;;;;;;4960584;28;21172;-25
2021/01/14 08:14:05;;;;;;;17.17;11.67;;;3.10;99.90;;;;;;4968528;28;20845;-25
2021/01/14 08:16:37;;;;;;;12.73;11.03;;;3.20;99.90;;;;;;4964843;28;20436;-25
2021/01/14 08:19:30;;;;;;;13.50;12.10;;;3.20;99.90;;;;;;4966081;28;21124;-25
2021/01/14 08:22:10;;;;;;;19.27;12.87;;;3.30;99.90;;;;;;4957130;28;20448;-25
2021/01/14 08:24:46;;;;;;;13.33;11.30;;;3.40;99.90;;;;;;4963548;28;20440;-25
2021/01/14 08:27:13;;;;;;;10.97;9.77;;;3.40;99.90;;;;;;4964654;28;20776;-25
2021/01/14 08:29:50;;;;;;;16.00;10.10;;;3.50;99.90;;;;;;4961393;28;20594;-25
2021/01/14 08:32:40;;;;;;;14.20;10.50;;;3.50;99.90;;;;;;4958129;28;21133;-25
2021/01/14 08:35:09;;;;;;;12.03;10.40;;;3.60;99.90;;;;;;4959512;28;20459;-25
2021/01/14 08:37:44;;;;;;;11.97;10.70;;;3.60;99.90;;;;;;4960756;28;20797;-25
2021/01/14 08:40:27;;;;;;;12.17;10.87;;;3.60;99.90;;;;;;4957476;28;20440;-25
2021/01/14 08:43:03;;;;;;;12.60;10.57;;;3.70;99.90;;;;;;4956377;28;20449;-25
2021/01/14 08:45:33;;;;;;;14.60;10.73;;;3.80;99.90;;;;;;4958952;28;20794;-25
2021/01/14 08:48:08;;;;;;;16.90;14.97;;;3.90;99.90;;;;;;4961930;28;21114;-25
2021/01/14 08:50:46;;;;;;;14.90;11.97;;;3.80;99.90;;;;;;4955360;28;21133;-25
2021/01/14 08:53:27;;;;;;;14.50;12.50;;;3.80;99.90;;;;;;4960595;28;20443;-25
2021/01/14 08:55:58;;;;;;;15.80;11.93;;;3.90;99.90;;;;;;4955437;28;20793;-25
2021/01/14 08:58:37;;;;;;;15.33;10.60;;;3.90;99.90;;;;;;4957890;28;20441;-25
2021/01/14 09:01:05;;;;;;;14.43;11.03;;;3.90;99.90;;;;;;4961486;28;20448;-25
2021/01/14 09:03:34;;;;;;;14.27;11.60;;;4.00;99.90;;;;;;4958908;28;20440;-26
2021/01/14 09:06:01;;;;;;;17.67;11.87;;;4.10;99.90;;;;;;4957324;28;20468;-26
2021/01/14 09:08:29;;;;;;;17.93;12.30;;;4.20;99.90;;;;;;4937978;28;20602;-26
2021/01/14 09:10:59;;;;;;;16.43;10.53;;;4.20;99.90;;;;;;4960462;28;20457;-26
2021/01/14 09:13:29;;;;;;;11.80;10.60;;;4.20;99.90;;;;;;4957656;28;20545;-26
2021/01/14 09:15:58;;;;;;;12.43;10.67;;;4.30;99.90;;;;;;4959896;28;20444;-26
2021/01/14 09:18:33;;;;;;;16.73;12.83;;;4.30;99.90;;;;;;4960673;28;20534;-26
2021/01/14 09:21:01;;;;;;;12.77;11.47;;;4.30;99.90;;;;;;4956507;28;20451;-26
2021/01/14 09:23:32;;;;;;;14.23;11.20;;;4.40;99.90;;;;;;4960873;28;20467;-26
2021/01/14 09:26:01;;;;;;;16.53;11.33;;;4.50;99.90;;;;;;4954231;28;21233;-26
2021/01/14 09:28:31;;;;;;;15.70;12.23;;;4.60;99.90;;;;;;4958686;28;20507;-26
2021/01/14 09:31:00;;;;;;;11.93;10.83;;;4.70;99.90;;;;;;4960594;28;20460;-26
2021/01/14 09:33:31;;;;;;;12.63;11.40;;;4.70;99.90;;;;;;4961717;28;20459;-26
2021/01/14 09:36:08;;;;;;;16.47;11.97;;;4.70;99.90;;;;;;4962686;28;20471;-26
2021/01/14 09:38:47;;;;;;;16.97;10.70;;;4.70;99.90;;;;;;4960026;28;20444;-26
2021/01/14 09:41:29;;;;;;;12.67;10.00;;;4.60;99.90;;;;;;4959928;28;21053;-26
2021/01/14 09:43:58;;;;;;;16.67;14.47;;;4.70;99.90;;;;;;4961228;28;20454;-26
2021/01/14 09:46:27;;;;;;;15.17;13.67;;;4.70;99.90;;;;;;4962828;28;20708;-26
2021/01/14 09:49:05;;;;;;;15.53;14.03;;;4.80;99.90;;;;;;4963866;28;20972;-26
2021/01/14 09:51:34;;;;;;;18.33;12.27;;;4.80;99.90;;;;;;4959648;28;20455;-26
2021/01/14 09:54:04;;;;;;;16.00;12.73;;;4.80;99.90;;;;;;4950618;28;20521;-26
2021/01/14 09:56:34;;;;;;;21.33;12.53;;;4.80;99.90;;;;;;4948841;28;20770;-26
2021/01/14 09:59:09;;;;;;;13.30;11.60;;;4.80;99.90;;;;;;4956876;28;20492;-26
2021/01/14 10:01:42;;;;;;;21.70;18.83;;;4.70;99.90;;;;;;4957323;28;20444;-26
2021/01/14 10:04:13;;;;;;;12.27;11.07;;;4.70;99.90;;;;;;4955637;28;20448;-26
2021/01/14 10:06:44;;;;;;;31.30;26.70;;;4.60;99.90;;;;;;4952743;28;20464;-26
2021/01/14 10:09:15;;;;;;;14.13;10.43;;;4.60;99.90;;;;;;4953109;28;20476;-26
2021/01/14 10:11:44;;;;;;;13.20;10.50;;;4.60;99.90;;;;;;4945447;28;20460;-26
2021/01/14 10:14:17;;;;;;;17.57;13.40;;;4.70;99.90;;;;;;4963974;28;20886;-26
2021/01/14 10:16:44;;;;;;;17.60;11.77;;;4.80;99.90;;;;;;4964490;28;20452;-26
2021/01/14 10:19:15;;;;;;;17.50;10.90;;;4.70;99.90;;;;;;4964584;28;20448;-26
2021/01/14 10:21:43;;;;;;;14.50;13.00;;;4.80;99.90;;;;;;4965386;28;21102;-26
2021/01/14 10:24:25;;;;;;;14.67;11.60;;;4.80;99.90;;;;;;4961352;28;20537;-27
2021/01/14 10:26:55;;;;;;;11.97;10.77;;;4.80;99.90;;;;;;4963106;28;20580;-25
2021/01/14 10:29:38;;;;;;;12.00;10.23;;;4.80;99.90;;;;;;4966181;28;20506;-26
2021/01/14 10:32:08;;;;;;;10.83;9.63;;;4.80;99.90;;;;;;4958917;28;20518;-26
2021/01/14 10:34:49;;;;;;;12.70;10.50;;;4.60;99.90;;;;;;4961890;28;20819;-26
2021/01/14 10:37:25;;;;;;;52.33;26.10;;;4.50;99.90;;;;;;4960485;28;20448;-26
2021/01/14 10:39:54;;;;;;;16.00;11.67;;;4.40;99.90;;;;;;4962112;28;20483;-26
2021/01/14 10:42:34;;;;;;;15.30;10.93;;;4.40;99.90;;;;;;4967444;28;21218;-26
2021/01/14 10:45:05;;;;;;;12.93;9.87;;;4.50;99.90;;;;;;4968058;28;20466;-26
2021/01/14 10:47:33;;;;;;;11.87;9.77;;;4.50;99.90;;;;;;4959380;28;20483;-26
2021/01/14 10:50:01;;;;;;;11.60;9.77;;;4.50;99.90;;;;;;4964779;28;20515;-26
2021/01/14 10:52:32;;;;;;;12.63;11.33;;;4.60;99.90;;;;;;4950103;28;20456;-26
2021/01/14 10:55:00;;;;;;;11.43;9.57;;;4.70;99.90;;;;;;4964468;28;20460;-26
2021/01/14 10:57:50;;;;;;;10.60;9.50;;;4.70;99.90;;;;;;4962466;28;20792;-26
2021/01/14 11:00:20;;;;;;;12.20;10.70;;;4.70;99.90;;;;;;4963414;28;20445;-26
2021/01/14 11:02:48;;;;;;;15.07;9.50;;;4.60;99.90;;;;;;4962217;28;20550;-26
2021/01/14 11:05:16;;;;;;;12.20;9.43;;;4.60;99.90;;;;;;4961784;28;20441;-26
2021/01/14 11:07:45;;;;;;;14.20;9.37;;;4.50;99.90;;;;;;4962055;28;20539;-26
2021/01/14 11:10:15;;;;;;;15.17;9.07;;;4.50;99.90;;;;;;4945041;28;20484;-25
2021/01/14 11:13:03;;;;;;;8.50;7.60;;;4.40;99.90;;;;;;4964596;28;21114;-25
2021/01/14 11:15:30;;;;;;;11.57;6.00;;;4.20;99.90;;;;;;4963306;28;20461;-25
2021/01/14 11:18:00;;;;;;;9.83;8.00;;;4.20;99.90;;;;;;4965999;28;20471;-25
2021/01/14 11:20:28;;;;;;;6.80;4.93;;;4.00;99.90;;;;;;4962493;28;20514;-25
2021/01/14 11:22:56;;;;;;;6.77;4.70;;;4.00;99.90;;;;;;4964151;28;20610;-25
2021/01/14 11:25:23;;;;;;;9.87;5.90;;;4.00;99.90;;;;;;4961205;28;20859;-25
2021/01/14 11:27:51;;;;;;;7.07;5.50;;;4.10;99.90;;;;;;4963918;28;20464;-25
2021/01/14 11:30:25;;;;;;;10.40;5.57;;;4.10;99.90;;;;;;4962632;28;20938;-25
2021/01/14 11:32:52;;;;;;;4.87;4.37;;;4.20;99.90;;;;;;4964765;28;20448;-25
2021/01/14 11:35:20;;;;;;;6.13;4.43;;;4.30;99.90;;;;;;4961724;28;20545;-25
2021/01/14 11:37:47;;;;;;;4.63;4.23;;;4.40;99.90;;;;;;4966506;28;21171;-25
2021/01/14 11:40:16;;;;;;;4.53;4.23;;;4.40;99.90;;;;;;4966292;28;20436;-25
2021/01/14 11:42:43;;;;;;;6.90;4.80;;;4.40;99.90;;;;;;4960118;28;20751;-25
2021/01/14 11:45:10;;;;;;;5.40;5.00;;;4.40;99.90;;;;;;4955161;28;20700;-26
2021/01/14 11:47:38;;;;;;;5.40;3.80;;;4.50;99.90;;;;;;4957648;28;20685;-27
2021/01/14 11:50:05;;;;;;;9.23;4.70;;;4.60;99.90;;;;;;4954490;28;20722;-25
2021/01/14 11:52:33;;;;;;;5.30;4.80;;;4.60;99.90;;;;;;4958216;28;20732;-25
2021/01/14 11:54:59;;;;;;;5.83;4.63;;;4.60;99.90;;;;;;4957262;28;20530;-25
2021/01/14 11:57:29;;;;;;;4.83;4.20;;;4.70;99.90;;;;;;4955553;28;20701;-25
2021/01/14 11:59:56;;;;;;;7.07;5.30;;;4.70;99.90;;;;;;4956756;28;20838;-25
2021/01/14 12:02:23;;;;;;;6.10;4.70;;;4.70;99.90;;;;;;4954298;28;20539;-26
2021/01/14 12:04:51;;;;;;;5.47;4.43;;;4.80;99.90;;;;;;4957431;28;20831;-26
2021/01/14 12:07:17;;;;;;;4.87;4.57;;;4.90;99.90;;;;;;4954767;28;20526;-25
2021/01/14 12:09:44;;;;;;;6.63;4.63;;;4.90;99.90;;;;;;4954968;28;20778;-26
2021/01/14 12:12:13;;;;;;;7.53;3.23;;;4.90;99.90;;;;;;4959088;28;20648;-25
2021/01/14 12:14:39;;;;;;;12.50;4.40;;;5.00;99.90;;;;;;4957715;28;21063;-26
2021/01/14 12:17:06;;;;;;;7.13;4.13;;;4.90;99.90;;;;;;4959235;28;20458;-26
2021/01/14 12:19:33;;;;;;;5.17;4.67;;;4.90;99.90;;;;;;4955316;28;20747;-26
2021/01/14 12:22:03;;;;;;;5.67;4.37;;;4.90;99.90;;;;;;4954225;28;21116;-27
2021/01/14 12:24:30;;;;;;;4.70;3.40;;;4.90;99.90;;;;;;4953335;28;20451;-25
2021/01/14 12:26:58;;;;;;;3.57;3.30;;;4.80;99.90;;;;;;4958682;28;20705;-26
2021/01/14 12:29:27;;;;;;;7.00;4.30;;;4.50;99.90;;;;;;4956909;28;20484;-26
2021/01/14 12:31:55;;;;;;;4.30;3.90;;;4.40;99.90;;;;;;4953062;28;20567;-25
2021/01/14 12:34:22;;;;;;;12.00;3.90;;;4.40;99.90;;;;;;4955512;28;20507;-26
2021/01/14 12:36:49;;;;;;;4.87;4.47;;;4.50;99.90;;;;;;4955415;28;20484;-26
2021/01/14 12:39:17;;;;;;;5.73;3.80;;;4.70;99.90;;;;;;4957056;28;20467;-25
2021/01/14 12:41:43;;;;;;;5.40;3.90;;;4.80;99.90;;;;;;4957522;28;20870;-25
2021/01/14 12:44:10;;;;;;;4.77;4.37;;;4.90;99.90;;;;;;4954529;28;20822;-27
2021/01/14 12:46:38;;;;;;;5.20;4.37;;;4.90;99.90;;;;;;4953192;28;20731;-26
2021/01/14 12:49:07;;;;;;;5.97;4.13;;;5.00;99.90;;;;;;4951445;28;20605;-27
2021/01/14 12:51:34;;;;;;;6.70;3.83;;;5.10;99.90;;;;;;4952492;28;20732;-26
2021/01/14 12:54:01;;;;;;;4.30;3.90;;;5.20;99.90;;;;;;4953417;28;20727;-27
2021/01/14 12:56:30;;;;;;;6.03;3.90;;;5.30;99.90;;;;;;4948449;28;20456;-27
2021/01/14 12:58:57;;;;;;;4.10;3.70;;;5.40;99.90;;;;;;4952723;28;20882;-28
2021/01/14 13:01:29;;;;;;;9.10;4.47;;;5.50;99.90;;;;;;4952799;28;20965;-28
2021/01/14 13:03:56;;;;;;;6.67;5.00;;;5.50;99.90;;;;;;4952718;28;20865;-27